Main page
METAR-TAF:

METAR-TAF

Airports :

Pécs-Pogány International Airport

Pécs, Hungary

latitude: 46-06N, longitude: 018-14E, elevation: 201 m

Current weather observation

The report was made 50 minutes ago, at 08:15 UTC
Wind 3 kt from the East/Southeast
Temperature 24°C
Humidity 50%
Pressure 1018 hPa
Visibility 10 km or more
no clouds below 1500 m and no cumulonimbus

METAR: LHPP 210815Z 11003KT CAVOK 24/13 Q1018

Time: 11:05 (09:05 UTC)

Forecast

The report was made 50 minutes ago, at 08:15 UTC
Forecast valid from 21 at 09 UTC to 21 at 18 UTC
Wind 3 kt from the East
Visibility 10 km or more
no clouds below 1500 m and no cumulonimbus
Becoming
from 21 at 09 UTC to 21 at 12 UTC
Wind 5 kt from the South/Southeast

TAF: LHPP 210815Z 2109/2118 09003KT CAVOK BECMG 2109/2112 16005KT

Weather observations and forecasts of more than 4000 airports (METAR and TAF reports).

The available stations are represented by yellow and red dots on the map.

Hover mouse over dot to see the name of the station.

Then click to see weather observations and forecasts.

To change the map : click on the green buttons with a black cross to zoom in, on the green button with a dash to zoom out, or on the green arrows for adjacent maps.


METAR-TAF: